Time;durP1;ratioP1;P1;durP2;ratioP2;P2;SDS_P1;SDS_P2;PMS_P1;PMS_P2;Temp;Humidity;BMP_temperature;BMP_pressure;BME280_temperature;BME280_humidity;BME280_pressure;Samples;Min_cycle;Max_cycle;Signal;HPM_P1;HPM_P2
2022/11/09 00:02:16;;;;;;;2.63;0.88;;;;;;;21.98;45.31;100339.66;4957021;28;20062;-64
2022/11/09 00:04:41;;;;;;;1.75;0.85;;;;;;;21.95;44.25;100331.03;4972937;28;20058;-64
2022/11/09 00:07:07;;;;;;;2.05;0.63;;;;;;;21.96;44.75;100330.84;4973314;28;20037;-64
2022/11/09 00:09:32;;;;;;;3.85;0.98;;;;;;;21.97;44.31;100326.25;4941345;28;20510;-64
2022/11/09 00:11:59;;;;;;;3.38;0.90;;;;;;;21.99;44.75;100335.03;4956898;28;20035;-64
2022/11/09 00:14:24;;;;;;;2.58;0.80;;;;;;;21.96;44.92;100332.72;4957042;28;20041;-64
2022/11/09 00:16:49;;;;;;;4.88;0.90;;;;;;;21.93;44.72;100330.44;4972911;28;20038;-64
2022/11/09 00:19:15;;;;;;;5.35;1.00;;;;;;;21.92;45.05;100334.19;4972843;28;20481;-64
2022/11/09 00:21:40;;;;;;;2.90;0.70;;;;;;;21.90;44.42;100336.31;4973397;28;20370;-64
2022/11/09 00:24:06;;;;;;;2.88;0.98;;;;;;;21.90;44.25;100330.84;4972810;28;20062;-64
2022/11/09 00:26:31;;;;;;;3.75;0.70;;;;;;;21.90;44.20;100330.84;4957123;28;20027;-64
2022/11/09 00:28:56;;;;;;;4.28;0.88;;;;;;;21.91;44.57;100335.28;4974205;28;20050;-64
2022/11/09 00:31:23;;;;;;;4.03;1.23;;;;;;;21.92;43.98;100324.13;4940608;28;20027;-64
2022/11/09 00:33:50;;;;;;;2.08;0.80;;;;;;;21.92;44.02;100328.75;4957048;28;20026;-64
2022/11/09 00:36:16;;;;;;;0.80;0.55;;;;;;;21.91;44.98;100327.94;4957022;28;20035;-64
2022/11/09 00:38:41;;;;;;;1.85;0.95;;;;;;;21.91;44.79;100333.38;4956520;28;20039;-64
2022/11/09 00:41:09;;;;;;;1.25;0.70;;;;;;;21.92;44.16;100329.59;4972644;28;20093;-64
2022/11/09 00:43:34;;;;;;;1.30;0.57;;;;;;;21.91;44.41;100336.13;4982340;28;20566;-64
2022/11/09 00:46:00;;;;;;;5.47;1.10;;;;;;;21.89;44.31;100335.47;4957539;28;20031;-64
2022/11/09 00:48:25;;;;;;;0.60;0.50;;;;;;;21.82;44.43;100333.78;4980369;28;20093;-64
2022/11/09 00:50:51;;;;;;;3.97;0.70;;;;;;;21.81;44.49;100348.47;4973910;28;20038;-64
2022/11/09 00:53:18;;;;;;;1.85;0.70;;;;;;;21.81;45.01;100343.00;4980630;28;20070;-64
2022/11/09 00:56:06;;;;;;;1.50;0.63;;;;;;;21.78;44.97;100343.44;4980806;28;20488;-64
2022/11/09 00:58:35;;;;;;;5.07;0.80;;;;;;;21.75;44.87;100343.88;4963686;28;20049;-63
2022/11/09 01:01:10;;;;;;;8.10;1.50;;;;;;;21.72;44.51;100341.59;4981208;28;20045;-64
2022/11/09 01:03:35;;;;;;;2.63;1.38;;;;;;;21.73;44.59;100355.00;4976408;28;20036;-64
2022/11/09 01:06:01;;;;;;;1.83;1.15;;;;;;;21.72;45.19;100363.41;4980581;28;20041;-64
2022/11/09 01:08:27;;;;;;;5.40;0.63;;;;;;;21.70;44.45;100368.22;4984552;28;20037;-63
2022/11/09 01:10:52;;;;;;;0.60;0.50;;;;;;;21.69;44.39;100366.56;4983926;28;20123;-63
2022/11/09 01:13:18;;;;;;;1.25;0.60;;;;;;;21.65;44.37;100357.97;4968614;28;20041;-64
2022/11/09 01:15:46;;;;;;;4.30;1.38;;;;;;;21.67;44.68;100369.47;4985754;28;20033;-64
2022/11/09 01:18:12;;;;;;;5.43;0.60;;;;;;;21.63;44.51;100364.66;4966032;28;20026;-64
2022/11/09 01:20:42;;;;;;;3.90;0.55;;;;;;;21.56;44.37;100363.81;4984359;28;20539;-64
2022/11/09 01:23:09;;;;;;;1.00;0.60;;;;;;;21.58;44.29;100380.84;4983319;28;20129;-64
2022/11/09 01:25:34;;;;;;;2.17;0.75;;;;;;;21.54;44.39;100376.84;4966484;28;20031;-64
2022/11/09 01:28:00;;;;;;;2.20;0.70;;;;;;;21.53;44.71;100372.44;4975411;28;20023;-63
2022/11/09 01:30:25;;;;;;;1.10;0.50;;;;;;;21.48;44.30;100373.06;4974876;28;20041;-63
2022/11/09 01:32:52;;;;;;;2.15;0.60;;;;;;;21.46;44.67;100367.84;4991046;28;20031;-63
2022/11/09 01:35:17;;;;;;;1.20;0.93;;;;;;;21.47;44.35;100374.94;4958825;28;20058;-63
2022/11/09 01:37:43;;;;;;;1.15;0.50;;;;;;;21.48;44.41;100371.19;4990875;28;20401;-63
2022/11/09 01:40:09;;;;;;;2.88;0.60;;;;;;;21.49;44.09;100377.47;4974601;28;20408;-63
2022/11/09 01:42:36;;;;;;;3.40;0.85;;;;;;;21.47;44.35;100369.50;4975168;28;20491;-63
2022/11/09 01:45:17;;;;;;;1.13;0.60;;;;;;;21.46;44.29;100377.91;4958444;28;20508;-64
2022/11/09 01:47:44;;;;;;;3.40;0.80;;;;;;;21.42;44.75;100366.56;4973359;28;20038;-64
2022/11/09 01:50:10;;;;;;;3.92;1.33;;;;;;;21.40;45.08;100357.78;4973391;28;20440;-63
2022/11/09 01:52:39;;;;;;;0.57;0.43;;;;;;;21.38;44.31;100365.31;4956329;28;20043;-63
2022/11/09 01:55:16;;;;;;;4.03;0.68;;;;;;;21.33;44.76;100367.00;4957845;28;20057;-63
2022/11/09 01:57:46;;;;;;;1.38;0.52;;;;;;;21.31;45.01;100353.59;4974543;28;20516;-64
2022/11/09 02:00:16;;;;;;;1.42;0.70;;;;;;;21.30;44.58;100356.53;4973548;28;20034;-64
2022/11/09 02:02:45;;;;;;;3.33;0.73;;;;;;;21.27;45.21;100357.75;4956900;28;20054;-64
2022/11/09 02:05:14;;;;;;;4.32;0.68;;;;;;;21.27;44.66;100362.41;4956570;28;20081;-63
2022/11/09 02:07:40;;;;;;;2.28;0.40;;;;;;;21.28;44.14;100370.34;4973088;28;20042;-64
2022/11/09 02:10:26;;;;;;;1.30;0.50;;;;;;;21.27;44.59;100368.66;4973544;28;20483;-63
2022/11/09 02:12:53;;;;;;;1.98;0.60;;;;;;;21.25;44.99;100380.81;4973172;28;20406;-64
2022/11/09 02:15:19;;;;;;;1.73;0.50;;;;;;;21.21;44.98;100372.25;4957179;28;20023;-63
2022/11/09 02:17:45;;;;;;;1.15;0.82;;;;;;;21.20;45.25;100370.56;4972799;28;20039;-63
2022/11/09 02:20:14;;;;;;;9.32;1.17;;;;;;;21.21;45.30;100380.44;4972106;28;20590;-64
2022/11/09 02:22:40;;;;;;;1.17;0.70;;;;;;;21.15;44.52;100370.38;4954161;28;20522;-63
2022/11/09 02:25:07;;;;;;;1.83;0.50;;;;;;;21.16;44.69;100385.63;4973252;28;20019;-63
2022/11/09 02:27:33;;;;;;;4.38;0.70;;;;;;;21.16;45.40;100388.38;4960810;28;20044;-63
2022/11/09 02:29:58;;;;;;;1.90;0.75;;;;;;;21.16;44.70;100387.53;4956561;28;20076;-63
2022/11/09 02:32:27;;;;;;;7.05;0.68;;;;;;;21.18;44.69;100399.91;4956457;28;20517;-63
2022/11/09 02:34:52;;;;;;;6.95;0.80;;;;;;;21.18;45.16;100404.50;4956340;28;20046;-63
2022/11/09 02:37:36;;;;;;;1.70;0.40;;;;;;;21.14;44.99;100395.91;4973789;28;20022;-63
2022/11/09 02:40:04;;;;;;;5.00;0.55;;;;;;;21.14;45.49;100393.19;4972374;28;20081;-64
2022/11/09 02:42:29;;;;;;;3.30;0.60;;;;;;;21.12;45.20;100389.84;4972546;28;20030;-63
2022/11/09 02:44:57;;;;;;;3.33;0.90;;;;;;;21.10;45.04;100394.66;4956475;28;20066;-63
2022/11/09 02:47:23;;;;;;;2.13;0.82;;;;;;;21.12;44.95;100391.72;4972127;28;20421;-63
2022/11/09 02:49:49;;;;;;;2.70;0.60;;;;;;;21.14;44.75;100403.25;4956431;28;20026;-64
2022/11/09 02:52:14;;;;;;;6.25;0.40;;;;;;;21.13;44.94;100391.53;4972208;28;20416;-64
2022/11/09 02:54:40;;;;;;;1.58;0.32;;;;;;;21.14;44.40;100386.91;4973720;28;20031;-64
2022/11/09 02:57:05;;;;;;;2.25;0.65;;;;;;;21.14;44.58;100379.56;4961561;28;20028;-63
2022/11/09 02:59:31;;;;;;;2.53;0.40;;;;;;;21.11;44.95;100385.44;4954252;28;20043;-63
2022/11/09 03:01:56;;;;;;;1.08;0.40;;;;;;;21.10;45.43;100383.78;4955830;28;20062;-63
2022/11/09 03:04:21;;;;;;;2.35;0.60;;;;;;;21.07;44.66;100381.47;4971985;28;20019;-63
2022/11/09 03:06:47;;;;;;;3.75;0.47;;;;;;;21.07;45.69;100392.34;4972295;28;20025;-64
2022/11/09 03:09:12;;;;;;;3.60;0.70;;;;;;;21.05;44.83;100396.31;4972107;28;20564;-63
2022/11/09 03:11:40;;;;;;;3.55;0.68;;;;;;;21.04;45.19;100390.00;4972267;28;20026;-64
2022/11/09 03:14:06;;;;;;;3.92;0.47;;;;;;;21.03;45.46;100392.94;4971897;28;20400;-63
2022/11/09 03:16:31;;;;;;;3.45;0.47;;;;;;;21.02;45.21;100386.63;4955846;28;20041;-63
2022/11/09 03:18:57;;;;;;;1.30;0.57;;;;;;;21.02;44.96;100378.47;4973416;28;20408;-64
2022/11/09 03:21:22;;;;;;;6.35;0.75;;;;;;;21.01;45.38;100384.97;4971722;28;20064;-63
2022/11/09 03:23:48;;;;;;;2.08;0.60;;;;;;;21.05;45.44;100391.66;4971632;28;20138;-64
2022/11/09 03:26:14;;;;;;;0.50;0.32;;;;;;;21.06;45.44;100393.38;4971528;28;20037;-64
2022/11/09 03:28:39;;;;;;;2.33;0.85;;;;;;;21.05;44.92;100388.94;4971995;28;20085;-64
2022/11/09 03:31:05;;;;;;;0.50;0.20;;;;;;;21.05;45.48;100394.41;4954467;28;20050;-63
2022/11/09 03:33:31;;;;;;;2.10;0.45;;;;;;;21.07;45.04;100400.53;4971176;28;20516;-64
2022/11/09 03:35:56;;;;;;;0.85;0.43;;;;;;;21.09;44.60;100398.44;4971269;28;20169;-63
2022/11/09 03:38:21;;;;;;;1.38;0.40;;;;;;;21.10;45.08;100397.41;4971369;28;20034;-63
2022/11/09 03:40:47;;;;;;;3.13;0.55;;;;;;;21.10;44.84;100402.84;4939393;28;20081;-63
2022/11/09 03:43:12;;;;;;;2.75;0.40;;;;;;;21.11;45.58;100407.22;4955030;28;20031;-63
2022/11/09 03:45:38;;;;;;;2.50;0.47;;;;;;;21.10;44.83;100411.00;4972993;28;20022;-63
2022/11/09 03:48:04;;;;;;;1.60;0.52;;;;;;;21.07;45.43;100400.53;4937448;28;20027;-64
2022/11/09 03:50:31;;;;;;;4.40;1.38;;;;;;;21.08;45.65;100413.09;4972605;28;20037;-63
2022/11/09 03:53:00;;;;;;;3.97;0.50;;;;;;;21.07;45.72;100422.31;4954945;28;20030;-63
2022/11/09 03:55:26;;;;;;;1.50;0.80;;;;;;;21.06;44.95;100423.31;4971066;28;20092;-63
2022/11/09 03:57:52;;;;;;;6.28;0.90;;;;;;;21.05;45.43;100435.25;4971317;28;20019;-63
2022/11/09 04:00:19;;;;;;;5.93;1.13;;;;;;;21.05;46.00;100437.97;4954632;28;20038;-63
2022/11/09 04:02:44;;;;;;;3.53;0.70;;;;;;;21.04;45.45;100455.38;4955098;28;20100;-63
2022/11/09 04:05:10;;;;;;;6.25;0.82;;;;;;;21.04;45.47;100443.66;4971046;28;20544;-64
2022/11/09 04:07:36;;;;;;;0.93;0.43;;;;;;;21.05;45.44;100446.16;4955013;28;20151;-64
2022/11/09 04:10:02;;;;;;;6.20;1.00;;;;;;;21.06;45.82;100452.44;4971073;28;20130;-64
2022/11/09 04:12:28;;;;;;;3.85;0.50;;;;;;;21.05;45.00;100450.78;4971737;28;20030;-63
2022/11/09 04:14:53;;;;;;;2.83;1.25;;;;;;;21.06;45.82;100453.28;4970822;28;20046;-64
2022/11/09 04:17:18;;;;;;;6.72;0.75;;;;;;;21.05;45.64;100454.31;4954963;28;20496;-64
2022/11/09 04:19:44;;;;;;;4.00;0.77;;;;;;;21.03;45.35;100459.13;4970824;28;20500;-64
2022/11/09 04:22:09;;;;;;;6.13;0.85;;;;;;;21.06;45.24;100453.28;4970656;28;20485;-63
2022/11/09 04:24:34;;;;;;;4.30;0.45;;;;;;;21.04;45.72;100463.56;4971219;28;20081;-63
2022/11/09 04:27:00;;;;;;;1.40;0.35;;;;;;;21.02;46.00;100457.44;4938418;28;20122;-63
2022/11/09 04:29:25;;;;;;;2.80;0.88;;;;;;;21.06;45.54;100466.06;4954742;28;20031;-63
2022/11/09 04:31:51;;;;;;;2.53;0.57;;;;;;;21.04;45.61;100460.84;4952858;28;20562;-63
2022/11/09 04:34:16;;;;;;;6.40;0.40;;;;;;;21.05;45.63;100457.03;4970611;28;20441;-63
2022/11/09 04:36:42;;;;;;;3.00;0.52;;;;;;;21.03;45.81;100464.59;4960927;28;20050;-63
2022/11/09 04:39:07;;;;;;;1.95;0.40;;;;;;;21.05;45.47;100470.66;4970876;28;20082;-64
2022/11/09 04:41:33;;;;;;;6.50;0.80;;;;;;;21.03;45.72;100464.59;4936824;28;20508;-63
2022/11/09 04:43:58;;;;;;;3.42;0.50;;;;;;;21.03;45.74;100470.03;4956314;28;20467;-63
2022/11/09 04:46:24;;;;;;;2.83;0.70;;;;;;;21.01;45.33;100455.78;4974501;28;20031;-63
2022/11/09 04:48:49;;;;;;;2.40;0.55;;;;;;;21.03;45.41;100471.91;4976475;28;20081;-64
2022/11/09 04:51:15;;;;;;;7.40;0.95;;;;;;;21.02;45.60;100473.78;4975751;28;20058;-64
2022/11/09 04:53:40;;;;;;;3.85;0.47;;;;;;;21.04;45.44;100470.88;4974278;28;20069;-63
2022/11/09 04:56:06;;;;;;;4.43;0.57;;;;;;;21.06;46.06;100471.50;4975353;28;20035;-63
2022/11/09 04:58:32;;;;;;;2.03;1.02;;;;;;;21.05;45.54;100473.38;4957879;28;20050;-63
2022/11/09 05:01:10;;;;;;;5.35;0.88;;;;;;;21.07;46.25;100465.91;4974928;28;20027;-64
2022/11/09 05:03:35;;;;;;;1.80;0.50;;;;;;;21.05;45.44;100467.94;4972823;28;20034;-64
2022/11/09 05:06:30;;;;;;;4.70;0.40;;;;;;;21.07;45.44;100467.75;4957819;28;20058;-63
2022/11/09 05:08:46;;;;;;;4.32;0.30;;;;;;;21.08;46.06;100473.00;4974029;28;20089;-64
2022/11/09 05:11:11;;;;;;;4.88;1.02;;;;;;;21.08;45.96;100467.56;4973847;28;20433;-64
2022/11/09 05:13:37;;;;;;;3.75;0.43;;;;;;;21.04;45.68;100477.16;4973975;28;20043;-63
2022/11/09 05:16:02;;;;;;;2.00;0.68;;;;;;;21.02;45.75;100481.97;4972392;28;20022;-64
2022/11/09 05:18:28;;;;;;;4.45;0.60;;;;;;;21.02;45.69;100468.34;4960697;28;20038;-63
2022/11/09 05:20:57;;;;;;;3.03;0.80;;;;;;;21.01;46.26;100480.31;4957447;28;20046;-63
2022/11/09 05:26:07;;;;;;;2.15;0.52;;;;;;;20.92;46.02;100484.25;4972581;28;20515;-63
2022/11/09 05:28:32;;;;;;;0.93;0.60;;;;;;;20.92;45.93;100484.25;4947331;28;20118;-63
2022/11/09 05:30:57;;;;;;;1.05;0.40;;;;;;;20.93;46.09;100469.59;4942090;28;20129;-63
2022/11/09 05:33:23;;;;;;;5.15;0.60;;;;;;;20.93;46.61;100480.50;4974360;28;20400;-63
2022/11/09 05:35:48;;;;;;;5.15;0.73;;;;;;;20.92;45.76;100473.34;4973766;28;20051;-63
2022/11/09 05:38:14;;;;;;;4.30;0.98;;;;;;;20.94;45.57;100487.59;4957517;28;20050;-64
2022/11/09 05:40:39;;;;;;;4.20;0.55;;;;;;;20.90;46.15;100475.47;4973658;28;20500;-63
2022/11/09 05:43:04;;;;;;;0.20;0.20;;;;;;;20.90;46.08;100486.34;4939944;28;20023;-63
2022/11/09 05:45:30;;;;;;;1.92;0.60;;;;;;;20.85;46.10;100473.31;4973381;28;20027;-63
2022/11/09 05:47:55;;;;;;;2.63;0.50;;;;;;;20.85;45.63;100483.41;4974478;28;20034;-63
2022/11/09 05:50:21;;;;;;;1.25;0.47;;;;;;;20.79;46.06;100482.34;4957488;28;20067;-63
2022/11/09 05:52:46;;;;;;;4.25;0.47;;;;;;;20.74;46.35;100481.28;4957166;28;20085;-64
2022/11/09 05:55:11;;;;;;;3.35;0.52;;;;;;;20.74;46.14;100481.28;4972015;28;20030;-63
2022/11/09 05:57:37;;;;;;;4.25;0.70;;;;;;;20.69;46.36;100472.84;4957962;28;20019;-64
2022/11/09 06:00:04;;;;;;;4.35;0.47;;;;;;;20.68;46.29;100480.19;4972977;28;20038;-64
2022/11/09 06:02:30;;;;;;;3.72;1.00;;;;;;;20.67;46.26;100474.94;4956878;28;20109;-64
2022/11/09 06:04:56;;;;;;;3.58;0.68;;;;;;;20.66;46.44;100474.09;4955715;28;20493;-65
2022/11/09 06:07:21;;;;;;;3.03;0.68;;;;;;;20.65;46.46;100482.47;4939341;28;20038;-64
2022/11/09 06:09:47;;;;;;;3.50;1.15;;;;;;;20.64;46.08;100483.50;4957346;28;20050;-63
2022/11/09 06:12:12;;;;;;;4.38;0.55;;;;;;;20.63;45.97;100490.84;4972658;28;20049;-63
2022/11/09 06:14:37;;;;;;;6.78;0.68;;;;;;;20.60;45.94;100491.22;4956745;28;20035;-63
2022/11/09 06:17:03;;;;;;;1.63;0.40;;;;;;;20.54;46.28;100489.34;4972713;28;20031;-63
2022/11/09 06:19:28;;;;;;;1.00;0.60;;;;;;;20.51;45.82;100486.19;4940741;28;20042;-63
2022/11/09 06:21:53;;;;;;;3.10;0.70;;;;;;;20.49;46.47;100488.28;4956030;28;20039;-63
2022/11/09 06:24:19;;;;;;;3.20;0.65;;;;;;;20.48;46.33;100487.44;4972771;28;20448;-63
2022/11/09 06:26:44;;;;;;;2.97;1.05;;;;;;;20.47;46.53;100491.19;4955552;28;20035;-64
2022/11/09 06:29:09;;;;;;;6.30;0.50;;;;;;;20.44;46.27;100496.19;4972458;28;20031;-64
2022/11/09 06:31:35;;;;;;;8.20;0.60;;;;;;;20.43;45.99;100503.53;4972708;28;20121;-63
2022/11/09 06:34:00;;;;;;;0.17;0.17;;;;;;;20.40;46.51;100505.78;4974483;28;20038;-65
2022/11/09 06:36:26;;;;;;;3.38;0.57;;;;;;;20.38;46.68;100507.88;4939158;28;20477;-64
2022/11/09 06:38:53;;;;;;;5.40;0.95;;;;;;;20.35;46.02;100509.13;4973769;28;20031;-63
2022/11/09 06:41:19;;;;;;;4.28;0.60;;;;;;;20.32;46.71;100513.06;4972383;28;20114;-63
2022/11/09 06:43:44;;;;;;;0.95;0.45;;;;;;;20.32;46.50;100513.06;4956018;28;20167;-63
2022/11/09 06:46:10;;;;;;;3.78;0.98;;;;;;;20.30;45.97;100523.31;4972091;28;20038;-63
2022/11/09 06:48:36;;;;;;;4.45;0.47;;;;;;;20.31;46.84;100524.16;4956478;28;20038;-63
2022/11/09 06:51:03;;;;;;;2.05;0.85;;;;;;;20.30;46.59;100515.16;4972150;28;20602;-63
2022/11/09 06:53:30;;;;;;;4.20;1.17;;;;;;;20.27;46.33;100523.72;4971933;28;20030;-63
2022/11/09 06:56:02;;;;;;;4.50;1.02;;;;;;;20.25;46.62;100525.78;4955780;28;20031;-63
2022/11/09 06:58:28;;;;;;;4.40;0.75;;;;;;;20.25;46.64;100531.25;4971860;28;20050;-62
2022/11/09 07:00:53;;;;;;;5.45;1.13;;;;;;;20.27;46.14;100529.16;4974312;28;20432;-64
2022/11/09 07:03:20;;;;;;;6.85;1.05;;;;;;;20.25;46.67;100530.41;4970202;28;20475;-63
2022/11/09 07:05:46;;;;;;;2.10;0.90;;;;;;;20.27;46.52;100531.88;4971601;28;20412;-63
2022/11/09 07:08:13;;;;;;;5.63;0.57;;;;;;;20.24;46.61;100532.28;4955462;28;20117;-63
2022/11/09 07:10:39;;;;;;;1.83;0.98;;;;;;;20.23;46.31;100527.00;4971742;28;20030;-64
2022/11/09 07:13:05;;;;;;;4.55;0.70;;;;;;;20.23;46.98;100538.72;4952074;28;20090;-65
2022/11/09 07:15:31;;;;;;;2.08;0.68;;;;;;;20.23;46.50;100537.88;4971422;28;20034;-64
2022/11/09 07:17:58;;;;;;;1.67;0.57;;;;;;;20.23;46.67;100537.88;4955247;28;20063;-64
2022/11/09 07:20:24;;;;;;;2.35;0.85;;;;;;;20.24;46.72;100545.00;4971358;28;20086;-63
2022/11/09 07:22:49;;;;;;;1.85;0.82;;;;;;;20.21;46.62;100535.34;4971534;28;20042;-64
2022/11/09 07:25:15;;;;;;;2.13;1.13;;;;;;;20.19;46.32;100542.88;4972490;28;20026;-64
2022/11/09 07:27:40;;;;;;;4.97;0.70;;;;;;;20.24;46.65;100536.81;4955822;28;20485;-64
2022/11/09 07:30:06;;;;;;;2.05;0.43;;;;;;;20.24;46.62;100543.16;4955065;28;20035;-64
2022/11/09 07:32:33;;;;;;;6.53;1.48;;;;;;;20.25;46.73;100546.72;4938770;28;20382;-64
2022/11/09 07:34:58;;;;;;;7.28;0.90;;;;;;;20.26;46.48;100548.41;4971139;28;20038;-64
2022/11/09 07:37:24;;;;;;;3.38;0.70;;;;;;;20.27;46.58;100559.06;4972349;28;20030;-63
2022/11/09 07:39:49;;;;;;;1.05;0.70;;;;;;;20.27;46.56;100559.06;4953563;28;20027;-64
2022/11/09 07:42:15;;;;;;;3.78;0.70;;;;;;;20.31;46.52;100552.22;4954771;28;20516;-64
2022/11/09 07:44:40;;;;;;;5.50;0.70;;;;;;;20.32;46.46;100561.22;4954657;28;20539;-63
2022/11/09 07:47:06;;;;;;;5.00;0.65;;;;;;;20.35;46.12;100557.25;4954890;28;20038;-64
2022/11/09 07:49:31;;;;;;;2.78;0.88;;;;;;;20.39;46.24;100559.38;4954636;28;20488;-64
2022/11/09 07:51:56;;;;;;;3.60;0.95;;;;;;;20.39;46.00;100553.09;4971354;28;20027;-64
2022/11/09 07:54:22;;;;;;;2.83;0.70;;;;;;;20.43;46.67;100559.81;4970725;28;20023;-64
2022/11/09 07:56:47;;;;;;;3.88;0.73;;;;;;;20.45;46.27;100569.47;4970843;28;20109;-64
2022/11/09 07:59:13;;;;;;;3.17;0.98;;;;;;;20.48;45.87;100568.22;4970517;28;20097;-64
2022/11/09 08:01:38;;;;;;;3.92;0.63;;;;;;;20.52;45.98;100566.78;4970883;28;20041;-64
2022/11/09 08:04:05;;;;;;;3.28;0.98;;;;;;;20.54;45.84;100575.59;4972268;28;20497;-64
2022/11/09 08:06:30;;;;;;;4.72;1.17;;;;;;;20.53;46.69;100576.63;4970683;28;20046;-64
2022/11/09 08:08:56;;;;;;;2.17;0.90;;;;;;;20.58;45.94;100576.84;4970610;28;20140;-64
2022/11/09 08:11:22;;;;;;;2.17;0.82;;;;;;;20.59;46.17;100581.28;4954777;28;20039;-64
2022/11/09 08:13:48;;;;;;;9.85;1.77;;;;;;;20.61;46.54;100580.03;4970602;28;20039;-64
2022/11/09 08:16:13;;;;;;;2.97;1.23;;;;;;;20.70;45.68;100583.44;4971870;28;20047;-62
2022/11/09 08:18:38;;;;;;;3.28;0.63;;;;;;;20.75;46.11;100584.50;4971738;28;20143;-63
2022/11/09 08:21:04;;;;;;;8.50;2.15;;;;;;;20.78;45.89;100597.72;4971845;28;20456;-62
2022/11/09 08:23:30;;;;;;;5.53;0.68;;;;;;;20.92;46.03;100590.47;4971785;28;20029;-63
2022/11/09 08:25:55;;;;;;;10.68;1.45;;;;;;;21.03;45.99;100592.59;4970458;28;20035;-63
2022/11/09 08:28:21;;;;;;;1.05;0.60;;;;;;;21.17;46.10;100591.66;4970349;28;20034;-65
2022/11/09 08:30:54;;;;;;;2.67;0.60;;;;;;;21.24;45.82;100584.34;4970882;28;20416;-63
2022/11/09 08:33:20;;;;;;;6.57;1.20;;;;;;;21.37;45.22;100592.56;4970488;28;20073;-62
2022/11/09 08:35:45;;;;;;;5.45;1.17;;;;;;;21.49;45.00;100590.09;4970298;28;20495;-63
2022/11/09 08:38:10;;;;;;;1.95;1.17;;;;;;;21.63;44.69;100593.69;4970359;28;20453;-63
2022/11/09 08:40:36;;;;;;;2.38;1.15;;;;;;;21.74;45.02;100585.75;4970401;28;20511;-65
2022/11/09 08:43:03;;;;;;;1.67;0.65;;;;;;;21.91;44.65;100589.78;4970812;28;20022;-64
2022/11/09 08:45:33;;;;;;;2.78;0.80;;;;;;;22.12;45.02;100583.25;4970380;28;20031;-64
2022/11/09 08:47:59;;;;;;;2.72;1.52;;;;;;;22.27;44.21;100583.91;4970294;28;20035;-64
2022/11/09 08:50:26;;;;;;;4.82;0.63;;;;;;;22.50;44.25;100588.91;4954275;28;20085;-64
2022/11/09 08:52:51;;;;;;;1.90;0.77;;;;;;;22.73;44.21;100591.19;4970364;28;20035;-64
2022/11/09 08:55:17;;;;;;;3.97;1.15;;;;;;;22.81;43.65;100590.97;4970358;28;20031;-64
2022/11/09 08:57:42;;;;;;;4.28;1.77;;;;;;;22.89;43.90;100593.47;4970695;28;20077;-64
2022/11/09 09:00:08;;;;;;;25.30;6.60;;;;;;;23.01;43.54;100589.00;4953802;28;20105;-64
2022/11/09 09:02:33;;;;;;;2.67;0.70;;;;;;;23.21;43.52;100600.69;4969978;28;20031;-64
2022/11/09 09:04:58;;;;;;;7.30;1.45;;;;;;;23.40;43.00;100597.06;4970152;28;20059;-64
2022/11/09 09:07:24;;;;;;;6.57;1.40;;;;;;;23.57;42.37;100602.84;4970378;28;20477;-64
2022/11/09 09:09:49;;;;;;;9.07;3.58;;;;;;;23.64;42.51;100600.94;4958721;28;20508;-64
2022/11/09 09:12:15;;;;;;;9.88;1.35;;;;;;;23.91;41.93;100596.13;4970424;28;20031;-64
2022/11/09 09:14:40;;;;;;;5.22;1.33;;;;;;;24.12;41.30;100612.22;4969892;28;20039;-64
2022/11/09 09:17:05;;;;;;;5.13;1.70;;;;;;;24.41;41.32;100605.19;4970094;28;20662;-64
2022/11/09 09:19:31;;;;;;;8.32;2.92;;;;;;;24.31;41.68;100601.09;4970036;28;20492;-65
2022/11/09 09:21:57;;;;;;;8.57;1.60;;;;;;;24.55;41.15;100607.59;4954165;28;20480;-64
2022/11/09 09:24:22;;;;;;;7.57;1.00;;;;;;;25.11;40.75;100612.09;4970084;28;20031;-65
2022/11/09 09:26:48;;;;;;;5.65;1.30;;;;;;;25.43;40.45;100610.84;4969864;28;20054;-65
2022/11/09 09:29:13;;;;;;;1.52;0.63;;;;;;;25.73;39.99;100606.22;4965559;28;20031;-64
2022/11/09 09:31:39;;;;;;;3.50;1.33;;;;;;;26.02;39.08;100609.97;4973749;28;20035;-64
2022/11/09 09:34:05;;;;;;;7.93;1.55;;;;;;;26.34;38.49;100605.06;4955730;28;20023;-65
2022/11/09 09:36:30;;;;;;;3.65;1.15;;;;;;;26.66;38.77;100606.41;4957292;28;20027;-64
2022/11/09 09:38:56;;;;;;;11.55;3.25;;;;;;;26.68;38.89;100604.22;4974386;28;20497;-64
2022/11/09 09:41:34;;;;;;;12.77;2.83;;;;;;;26.88;38.98;100612.97;4957095;28;20035;-65
2022/11/09 09:44:06;;;;;;;3.13;0.82;;;;;;;27.16;37.86;100624.03;4974392;28;20035;-64
2022/11/09 09:46:37;;;;;;;3.60;0.80;;;;;;;27.10;38.10;100630.50;4956857;28;20046;-65
2022/11/09 09:49:14;;;;;;;1.47;0.70;;;;;;;27.27;37.61;100616.00;4973436;28;20018;-65
2022/11/09 09:51:43;;;;;;;4.85;0.80;;;;;;;27.60;37.56;100624.41;4956923;28;20136;-64
2022/11/09 09:54:21;;;;;;;3.83;1.35;;;;;;;27.96;36.76;100626.75;4955514;28;20054;-65
2022/11/09 09:56:48;;;;;;;4.95;0.98;;;;;;;28.18;36.94;100630.47;4970624;28;20023;-66
2022/11/09 09:59:21;;;;;;;5.80;1.05;;;;;;;28.32;36.52;100639.25;4972623;28;20521;-65
2022/11/09 10:01:48;;;;;;;2.72;0.77;;;;;;;28.50;36.29;100640.94;4972931;28;20030;-65
2022/11/09 10:04:19;;;;;;;11.27;1.88;;;;;;;28.62;35.48;100634.22;4972790;28;20015;-65
2022/11/09 10:07:11;;;;;;;9.18;2.60;;;;;;;28.75;34.93;100644.13;4957066;28;20022;-65
2022/11/09 10:10:12;;;;;;;4.40;0.80;;;;;;;29.05;35.40;100643.72;4971331;28;20030;-65
2022/11/09 10:12:37;;;;;;;5.95;1.08;;;;;;;29.06;35.50;100646.22;4896787;29;20168;-65
2022/11/09 10:15:13;;;;;;;3.45;0.63;;;;;;;28.96;34.73;100651.59;4960918;28;20062;-65
2022/11/09 10:17:51;;;;;;;7.07;1.30;;;;;;;29.26;34.62;100653.94;4969277;28;20038;-66
2022/11/09 10:20:51;;;;;;;16.88;4.28;;;;;;;29.48;34.47;100662.25;4973328;28;20046;-65
2022/11/09 10:23:47;;;;;;;17.52;5.80;;;;;;;29.53;34.18;100662.31;4972159;28;20393;-67
2022/11/09 10:26:17;;;;;;;19.50;6.50;;;;;;;29.51;33.91;100658.97;4972652;28;20493;-66
2022/11/09 10:28:45;;;;;;;12.13;4.30;;;;;;;29.58;33.94;100660.44;4973571;28;20077;-66
2022/11/09 10:31:19;;;;;;;2.05;1.10;;;;;;;29.67;33.76;100658.06;4962406;28;20496;-65
2022/11/09 10:33:56;;;;;;;16.50;6.07;;;;;;;29.57;34.29;100657.91;4972714;28;20119;-66
2022/11/09 10:36:40;;;;;;;3.45;0.60;;;;;;;29.16;34.25;100664.81;4972338;28;20042;-66
2022/11/09 10:39:09;;;;;;;2.95;0.65;;;;;;;29.16;34.31;100668.44;4970209;28;20488;-65
2022/11/09 10:41:47;;;;;;;5.30;1.73;;;;;;;29.31;33.66;100668.66;4969523;28;20027;-65
2022/11/09 10:44:17;;;;;;;4.07;1.35;;;;;;;29.55;33.33;100672.00;4972124;28;20126;-66
2022/11/09 10:47:02;;;;;;;8.15;2.97;;;;;;;29.67;33.28;100671.88;4971828;28;20046;-65
2022/11/09 10:49:28;;;;;;;4.22;2.05;;;;;;;29.90;33.06;100680.72;4980407;28;20035;-66
2022/11/09 10:51:53;;;;;;;3.97;0.90;;;;;;;29.92;33.23;100680.47;4972255;28;20388;-67
2022/11/09 10:54:22;;;;;;;2.92;0.55;;;;;;;29.44;33.71;100675.72;4969817;28;20038;-65
2022/11/09 10:56:51;;;;;;;2.65;0.77;;;;;;;28.70;34.02;100674.38;4957525;28;20038;-65
2022/11/09 10:59:44;;;;;;;2.58;0.60;;;;;;;29.04;33.03;100673.22;4971313;28;20508;-66
2022/11/09 11:02:24;;;;;;;3.00;0.75;;;;;;;29.23;33.55;100680.13;4980021;28;20461;-65
2022/11/09 11:05:05;;;;;;;7.55;0.93;;;;;;;28.40;34.69;100680.16;4971295;28;20440;-65
2022/11/09 11:07:31;;;;;;;6.47;2.03;;;;;;;28.64;33.24;100678.13;4972846;28;20043;-65
2022/11/09 11:10:14;;;;;;;5.47;1.38;;;;;;;28.58;33.93;100688.22;4972164;28;20496;-65
2022/11/09 11:12:39;;;;;;;4.10;1.88;;;;;;;27.95;33.98;100687.56;4973248;28;20066;-65
2022/11/09 11:15:21;;;;;;;3.45;1.20;;;;;;;28.00;34.17;100687.69;4955235;28;20038;-65
2022/11/09 11:17:47;;;;;;;3.13;0.95;;;;;;;27.45;34.67;100696.50;4963040;28;20113;-65
2022/11/09 11:20:24;;;;;;;3.90;0.75;;;;;;;27.54;34.27;100695.03;4971502;28;20142;-66
2022/11/09 11:23:06;;;;;;;4.20;1.17;;;;;;;27.01;34.57;100686.13;4971556;28;20034;-64
2022/11/09 11:25:32;;;;;;;5.25;1.30;;;;;;;27.04;34.61;100691.97;4971339;28;20113;-64
2022/11/09 11:28:10;;;;;;;7.13;1.95;;;;;;;27.24;34.92;100696.25;4961444;28;20122;-64
2022/11/09 11:30:37;;;;;;;8.18;2.25;;;;;;;26.94;34.99;100686.22;4969583;28;20062;-65